Aérodrome :
LOGIN :

S'inscrire | Disclaimer

   EN    FR    IT 

 










Légende :    VFR   VFR Marginal   IFR   IFR Intensif   IFR Très Intensif
Visi : 
Plafond : 
>= 8 km
>= 3000ft
5 à 8 km
1000 à 3000 ft
1500m à 5 km
500 à 1000 ft
800 à 1500m
200 à 500 ft
< 800m
< 200 ft
Symboles :   Orages  Brouillard  Fortes neiges  Fortes précipitations  Vent > 20 kt
SIGMETs :   Divers  Orages  Givrage  Turbulence  Onde Orograph.  Cendres Volcan.







- Altitude de l'aérodrome : 1906 ft
- Code IATA : INN


LOWI - Innsbruck

DERNIER METAR :
  • 232020Z 09006KT 030V140 9999 SCT050 BKN070 19/09 Q1017 NOSIG

METARs EXPIRÉS :
  • 231950Z 06008KT 020V100 9999 FEW060 FEW070CB BKN120 19/09 Q1017 NOSIG
  • 231920Z 06007KT 010V100 9999 FEW060 BKN120 19/10 Q1017 NOSIG
  • 231850Z 10006KT 030V180 9999 FEW060 BKN120 20/09 Q1016 NOSIG
  • 231820Z VRB04KT 9999 FEW060 BKN120 21/08 Q1015 NOSIG
  • 231750Z 13008KT 070V230 9999 FEW070 SCT120 BKN300 21/07 Q1014 NOSIG

TAF TAF LOWI
Valide du 23 à 18h jusqu'au 24 à 18h UTC


231715Z 2318/2418 08006KT 9999 SCT070 BKN090 TX24/2415Z TN12/2405Z
TEMPO 2318/2320 27015G25KT 6000 TSRA SCT050CB BKN070
BECMG 2320/2322 27005KT -SHRA BKN070
TEMPO 2320/2402 27010KT SHRA SCT030 BKN050
BECMG 2409/2411 08007KT NSW FEW050 SCT070
Pas de NOTAMs connus pour ce terrain.
1 SIGMET publié pour la FIR Wien (LOVV) :
 
Orages en lignes de grains avec grêle
LOVV SIGMET 1 VALID 231926/232100 LOWW
LOVV WIEN FIR SQL TSGR OBS AT 1926Z WI N4825 E01355 - N4825 E01435 - N4725 E01335 - N4725 E01255 - N4825 E01355 TOP FL390 MOV E NC=



MET'MAP, la Météo Aéronautique d'un coup d'oeil ! - Copyright ORBIFLY Décembre 2007 - Disclaimer

ORBIFLY MET'MAP TEAM :

Programmation & Développement : Alexandra Zaïnal
Conception & Développement : Baudouin d'Aumeries
Co-Programmation & Développement : Marc-Olivier Méhu
Soutien technique & logistique : Manuel Goepfert

Contact : metmap@orbifly.com




SOURCES & CREDITS :

   NOAA